Time;durP1;ratioP1;P1;durP2;ratioP2;P2;SDS_P1;SDS_P2;PMS_P1;PMS_P2;Temp;Humidity;BMP_temperature;BMP_pressure;BME280_temperature;BME280_humidity;BME280_pressure;Samples;Min_cycle;Max_cycle;Signal;HPM_P1;HPM_P2
2022/03/01 00:01:20;;;;;;;;;;;1.50;99.90;;;;;;5112253;28;19923;-75
2022/03/01 00:03:46;;;;;;;;;;;0.90;99.90;;;;;;5111673;28;19957;-75
2022/03/01 00:06:11;;;;;;;;;;;1.00;99.90;;;;;;5111033;28;19915;-75
2022/03/01 00:08:37;;;;;;;;;;;0.80;99.90;;;;;;5110974;28;20314;-74
2022/03/01 00:11:02;;;;;;;;;;;0.80;99.90;;;;;;5092793;28;19911;-74
2022/03/01 00:13:28;;;;;;;;;;;0.80;99.90;;;;;;5092787;28;19912;-74
2022/03/01 00:15:53;;;;;;;;;;;0.80;99.90;;;;;;5092577;28;19912;-73
2022/03/01 00:18:19;;;;;;;;;;;0.80;99.90;;;;;;5111536;28;19912;-73
2022/03/01 00:20:44;;;;;;;;;;;0.80;99.90;;;;;;5092674;28;19965;-74
2022/03/01 00:23:10;;;;;;;;;;;0.80;99.90;;;;;;5111618;28;19919;-74
2022/03/01 00:25:36;;;;;;;;;;;0.80;99.90;;;;;;5110982;28;19919;-75
2022/03/01 00:28:02;;;;;;;;;;;0.70;99.90;;;;;;5092752;28;19916;-74
2022/03/01 00:30:27;;;;;;;;;;;0.70;99.90;;;;;;5111129;28;19935;-74
2022/03/01 00:32:53;;;;;;;;;;;0.70;99.90;;;;;;5092870;28;19955;-75
2022/03/01 00:35:18;;;;;;;;;;;0.80;99.90;;;;;;5110966;28;19912;-74
2022/03/01 00:37:44;;;;;;;;;;;0.70;99.90;;;;;;5111144;28;19919;-74
2022/03/01 00:40:10;;;;;;;;;;;0.70;99.90;;;;;;5092475;28;19919;-73
2022/03/01 00:42:36;;;;;;;;;;;0.70;99.90;;;;;;5110874;28;20271;-74
2022/03/01 00:45:01;;;;;;;;;;;0.70;99.90;;;;;;5092536;28;19920;-74
2022/03/01 00:47:27;;;;;;;;;;;0.60;99.90;;;;;;5092799;28;19939;-74
2022/03/01 00:49:52;;;;;;;;;;;0.60;99.90;;;;;;5092421;28;19916;-74
2022/03/01 00:52:18;;;;;;;;;;;0.50;99.90;;;;;;5092396;28;19947;-75
2022/03/01 00:54:43;;;;;;;;;;;0.50;99.90;;;;;;5110690;28;20408;-74
2022/03/01 00:57:09;;;;;;;;;;;0.50;99.90;;;;;;5111100;28;19915;-76
2022/03/01 00:59:34;;;;;;;;;;;0.70;99.90;;;;;;5095498;28;19919;-75
2022/03/01 01:02:00;;;;;;;;;;;0.60;99.90;;;;;;5094713;28;19923;-76
2022/03/01 01:04:25;;;;;;;;;;;0.50;99.90;;;;;;5095948;28;19922;-73
2022/03/01 01:06:51;;;;;;;;;;;0.50;99.90;;;;;;5114588;28;19911;-74
2022/03/01 01:09:16;;;;;;;;;;;0.50;99.90;;;;;;5114185;28;19961;-75
2022/03/01 01:11:42;;;;;;;;;;;0.50;99.90;;;;;;5114735;28;19911;-74
2022/03/01 01:14:08;;;;;;;;;;;0.40;99.90;;;;;;5096123;28;19911;-75
2022/03/01 01:16:34;;;;;;;;;;;0.40;99.90;;;;;;5114402;28;19956;-74
2022/03/01 01:18:59;;;;;;;;;;;0.40;99.90;;;;;;5114783;28;19916;-74
2022/03/01 01:22:39;;;;;;;;;;;0.40;99.90;;;;;;5114095;28;19927;-74
2022/03/01 01:24:11;;;;;;;;;;;0.30;99.90;;;;;;5113756;28;19916;-75
2022/03/01 01:26:36;;;;;;;;;;;0.30;99.90;;;;;;5095645;28;19915;-74
2022/03/01 01:29:02;;;;;;;;;;;0.40;99.90;;;;;;5114497;28;19919;-75
2022/03/01 01:31:27;;;;;;;;;;;0.30;99.90;;;;;;5113791;28;19925;-75
2022/03/01 01:33:53;;;;;;;;;;;0.30;99.90;;;;;;5114320;28;19911;-75
2022/03/01 01:36:18;;;;;;;;;;;0.30;99.90;;;;;;5113589;28;19912;-74
2022/03/01 01:38:44;;;;;;;;;;;0.30;99.90;;;;;;5095426;28;19922;-74
2022/03/01 01:41:09;;;;;;;;;;;0.40;99.90;;;;;;5113717;28;20002;-73
2022/03/01 01:43:35;;;;;;;;;;;0.30;99.90;;;;;;5114322;28;19925;-73
2022/03/01 01:46:01;;;;;;;;;;;0.30;99.90;;;;;;5113943;28;20021;-74
2022/03/01 01:48:26;;;;;;;;;;;0.30;99.90;;;;;;5095596;28;19916;-75
2022/03/01 01:50:52;;;;;;;;;;;0.30;99.90;;;;;;5113349;28;20007;-74
2022/03/01 01:53:19;;;;;;;;;;;0.20;99.90;;;;;;5113194;28;20433;-75
2022/03/01 01:55:45;;;;;;;;;;;0.20;99.90;;;;;;5095294;28;19915;-74
2022/03/01 01:58:10;;;;;;;;;;;0.20;99.90;;;;;;5114055;28;19924;-74
2022/03/01 02:00:36;;;;;;;;;;;0.20;99.90;;;;;;5116149;27;19927;-74
2022/03/01 02:03:02;;;;;;;;;;;0.20;99.90;;;;;;5113095;28;19923;-75
2022/03/01 02:05:28;;;;;;;;;;;0.30;99.90;;;;;;5094499;28;19970;-75
2022/03/01 02:07:54;;;;;;;;;;;0.20;99.90;;;;;;5113732;28;19916;-75
2022/03/01 02:10:19;;;;;;;;;;;0.20;99.90;;;;;;5112895;28;19908;-74
2022/03/01 02:12:45;;;;;;;;;;;0.20;99.90;;;;;;5094652;28;19959;-73
2022/03/01 02:15:11;;;;;;;;;;;0.10;99.90;;;;;;5112822;28;19919;-73
2022/03/01 02:17:40;;;;;;;;;;;0.10;99.90;;;;;;5094733;28;20018;-74
2022/03/01 02:20:24;;;;;;;;;;;0.10;99.90;;;;;;5121868;27;19915;-73
2022/03/01 02:22:53;;;;;;;;;;;0.10;99.90;;;;;;5133754;27;19963;-75
2022/03/01 02:25:19;;;;;;;;;;;0.00;99.90;;;;;;5115450;27;19911;-74
2022/03/01 02:27:44;;;;;;;;;;;0.00;99.90;;;;;;5149298;27;19922;-73
2022/03/01 02:30:10;;;;;;;;;;;0.00;99.90;;;;;;5133052;27;19915;-74
2022/03/01 02:32:36;;;;;;;;;;;-0.10;99.90;;;;;;5133209;27;19922;-74
2022/03/01 02:35:03;;;;;;;;;;;-0.10;99.90;;;;;;5124929;27;19998;-74
2022/03/01 02:37:28;;;;;;;;;;;-0.10;99.90;;;;;;5094649;28;19927;-74
2022/03/01 02:39:54;;;;;;;;;;;-0.10;99.90;;;;;;5112409;28;20267;-74
2022/03/01 02:42:20;;;;;;;;;;;-0.10;99.90;;;;;;5112561;28;19923;-74
2022/03/01 02:44:47;;;;;;;;;;;-0.20;99.90;;;;;;5112770;28;19908;-73
2022/03/01 02:47:12;;;;;;;;;;;-0.30;99.90;;;;;;5112814;28;20023;-74
2022/03/01 02:49:38;;;;;;;;;;;-0.30;99.90;;;;;;5112664;28;19958;-74
2022/03/01 02:52:03;;;;;;;;;;;-0.30;99.90;;;;;;5093991;28;19931;-74
2022/03/01 02:54:29;;;;;;;;;;;-0.40;99.90;;;;;;5112091;28;20289;-73
2022/03/01 02:56:59;;;;;;;;;;;1.20;99.90;;;;;;5094202;28;20295;-73
2022/03/01 02:59:24;;;;;;;;;;;-0.50;99.90;;;;;;5115436;27;20011;-74
2022/03/01 03:01:50;;;;;;;;;;;-0.50;99.90;;;;;;5094149;28;19998;-74
2022/03/01 03:04:15;;;;;;;;;;;-0.50;99.90;;;;;;5112232;28;19981;-73
2022/03/01 03:06:41;;;;;;;;;;;-0.50;99.90;;;;;;5093652;28;19964;-74
2022/03/01 03:09:06;;;;;;;;;;;-0.10;99.90;;;;;;5094084;28;19912;-74
2022/03/01 03:11:32;;;;;;;;;;;-0.50;99.90;;;;;;5111775;28;20251;-74
2022/03/01 03:13:57;;;;;;;;;;;-0.50;99.90;;;;;;5093650;28;19919;-73
2022/03/01 03:16:23;;;;;;;;;;;-0.50;99.90;;;;;;5111606;28;19911;-73
2022/03/01 03:18:48;;;;;;;;;;;-0.50;99.90;;;;;;5094020;28;19912;-74
2022/03/01 03:21:15;;;;;;;;;;;-0.50;99.90;;;;;;5092998;28;19923;-75
2022/03/01 03:23:40;;;;;;;;;;;-0.50;99.90;;;;;;5111607;28;19916;-73
2022/03/01 03:26:06;;;;;;;;;;;-0.60;99.90;;;;;;5128853;27;20385;-73
2022/03/01 03:28:32;;;;;;;;;;;-0.60;99.90;;;;;;5113803;27;20063;-73
2022/03/01 03:30:57;;;;;;;;;;;-0.60;99.90;;;;;;5132306;27;19912;-74
2022/03/01 03:33:23;;;;;;;;;;;-0.60;99.90;;;;;;5132400;27;19916;-74
2022/03/01 03:35:49;;;;;;;;;;;-0.60;99.90;;;;;;5117699;27;19961;-74
2022/03/01 03:38:14;;;;;;;;;;;-0.60;99.90;;;;;;5093764;28;19918;-74
2022/03/01 03:40:40;;;;;;;;;;;-0.40;99.90;;;;;;5111257;28;19916;-74
2022/03/01 03:43:05;;;;;;;;;;;-0.60;99.90;;;;;;5111753;28;20003;-74
2022/03/01 03:45:31;;;;;;;;;;;-0.50;99.90;;;;;;5111449;28;19923;-75
2022/03/01 03:47:57;;;;;;;;;;;-0.60;99.90;;;;;;5111756;28;19912;-74
2022/03/01 03:50:23;;;;;;;;;;;-0.60;99.90;;;;;;5092436;28;19968;-74
2022/03/01 03:52:48;;;;;;;;;;;-0.70;99.90;;;;;;5093153;28;19947;-73
2022/03/01 03:55:14;;;;;;;;;;;-0.70;99.90;;;;;;5092877;28;19957;-75
2022/03/01 03:57:40;;;;;;;;;;;-0.70;99.90;;;;;;5111775;28;19916;-73
2022/03/01 04:00:07;;;;;;;;;;;-0.20;99.90;;;;;;5114887;28;19912;-73
2022/03/01 04:02:33;;;;;;;;;;;-0.60;99.90;;;;;;5092837;28;19985;-74
2022/03/01 04:04:58;;;;;;;;;;;-0.60;99.90;;;;;;5111974;28;19916;-73
2022/03/01 04:07:24;;;;;;;;;;;-0.60;99.90;;;;;;5111502;28;19972;-74
2022/03/01 04:09:50;;;;;;;;;;;-0.60;99.90;;;;;;5092842;28;19911;-75
2022/03/01 04:12:15;;;;;;;;;;;-0.60;99.90;;;;;;5111151;28;20627;-74
2022/03/01 04:14:41;;;;;;;;;;;-0.60;99.90;;;;;;5111315;28;20286;-74
2022/03/01 04:17:08;;;;;;;;;;;-0.70;99.90;;;;;;5111597;28;19912;-74
2022/03/01 04:19:37;;;;;;;;;;;-0.70;99.90;;;;;;5092668;28;20417;-73
2022/03/01 04:22:02;;;;;;;;;;;-0.70;99.90;;;;;;5111339;28;19963;-74
2022/03/01 04:24:28;;;;;;;;;;;-0.70;99.90;;;;;;5111236;28;19961;-73
2022/03/01 04:26:54;;;;;;;;;;;-0.70;99.90;;;;;;5111589;28;19912;-73
2022/03/01 04:29:19;;;;;;;;;;;-0.60;99.90;;;;;;5111195;28;19915;-74
2022/03/01 04:31:45;;;;;;;;;;;-0.70;99.90;;;;;;5093149;28;20425;-73
2022/03/01 04:34:10;;;;;;;;;;;-0.70;99.90;;;;;;5110833;28;20410;-74
2022/03/01 04:36:36;;;;;;;;;;;-0.70;99.90;;;;;;5112887;28;19908;-74
2022/03/01 04:39:02;;;;;;;;;;;-0.70;99.90;;;;;;5115410;28;19919;-73
2022/03/01 04:41:27;;;;;;;;;;;-0.70;99.90;;;;;;5096301;28;19926;-74
2022/03/01 04:43:53;;;;;;;;;;;-0.70;99.90;;;;;;5096522;28;19912;-73
2022/03/01 04:46:18;;;;;;;;;;;-0.60;99.90;;;;;;5096724;28;19912;-73
2022/03/01 04:48:45;;;;;;;;;;;-0.60;99.90;;;;;;5115539;28;19916;-74
2022/03/01 04:51:11;;;;;;;;;;;-0.60;99.90;;;;;;5114654;28;20290;-75
2022/03/01 04:53:36;;;;;;;;;;;-0.60;99.90;;;;;;5115154;28;20014;-74
2022/03/01 04:56:02;;;;;;;;;;;-0.70;99.90;;;;;;5114734;28;19912;-74
2022/03/01 04:58:27;;;;;;;;;;;-0.70;99.90;;;;;;5114984;28;19915;-75
2022/03/01 05:00:54;;;;;;;;;;;-0.70;99.90;;;;;;5114493;28;19908;-74
2022/03/01 05:03:20;;;;;;;;;;;-0.70;99.90;;;;;;5114909;28;20067;-73
2022/03/01 05:05:46;;;;;;;;;;;-0.60;99.90;;;;;;5110709;27;19911;-74
2022/03/01 05:08:12;;;;;;;;;;;-0.60;99.90;;;;;;5135712;27;20027;-73
2022/03/01 05:10:37;;;;;;;;;;;-0.60;99.90;;;;;;5141122;27;20006;-74
2022/03/01 05:13:03;;;;;;;;;;;-0.60;99.90;;;;;;5135162;27;20393;-73
2022/03/01 05:15:29;;;;;;;;;;;-0.50;99.90;;;;;;5135264;27;19914;-73
2022/03/01 05:17:55;;;;;;;;;;;-0.50;99.90;;;;;;5135338;27;19915;-73
2022/03/01 05:20:21;;;;;;;;;;;-0.60;99.90;;;;;;5124130;27;19908;-73
2022/03/01 05:22:47;;;;;;;;;;;-0.50;99.90;;;;;;5114874;28;19972;-72
2022/03/01 05:25:14;;;;;;;;;;;-0.50;99.90;;;;;;5095615;28;19934;-73
2022/03/01 05:27:40;;;;;;;;;;;-0.50;99.90;;;;;;5114621;28;19920;-73
2022/03/01 05:30:07;;;;;;;;;;;-0.50;99.90;;;;;;5114280;28;19908;-73
2022/03/01 05:32:33;;;;;;;;;;;-0.50;99.90;;;;;;5113488;28;19916;-74
2022/03/01 05:34:59;;;;;;;;;;;-0.50;99.90;;;;;;5113887;28;19908;-72
2022/03/01 05:37:24;;;;;;;;;;;-0.50;99.90;;;;;;5114288;28;20454;-73
2022/03/01 05:39:50;;;;;;;;;;;-0.50;99.90;;;;;;5095595;28;20003;-73
2022/03/01 05:42:15;;;;;;;;;;;-0.50;99.90;;;;;;5113838;28;19930;-73
2022/03/01 05:44:41;;;;;;;;;;;-0.50;99.90;;;;;;5113763;28;19916;-73
2022/03/01 05:47:06;;;;;;;;;;;-0.50;99.90;;;;;;5113797;28;19915;-74
2022/03/01 05:49:33;;;;;;;;;;;-0.50;99.90;;;;;;5095654;28;20002;-74
2022/03/01 05:51:59;;;;;;;;;;;-0.50;99.90;;;;;;5095509;28;19920;-74
2022/03/01 05:54:25;;;;;;;;;;;-0.50;99.90;;;;;;5113556;28;19911;-73
2022/03/01 05:56:50;;;;;;;;;;;-0.50;99.90;;;;;;5113910;28;19907;-74
2022/03/01 05:59:17;;;;;;;;;;;-0.40;99.90;;;;;;5098396;27;19912;-74
2022/03/01 06:01:42;;;;;;;;;;;-0.50;99.90;;;;;;5114071;28;19962;-74
2022/03/01 06:04:08;;;;;;;;;;;-0.40;99.90;;;;;;5094667;28;19955;-75
2022/03/01 06:06:33;;;;;;;;;;;-0.30;99.90;;;;;;5095129;28;19908;-74
2022/03/01 06:08:59;;;;;;;;;;;-0.50;99.90;;;;;;5114376;28;20267;-73
2022/03/01 06:11:24;;;;;;;;;;;-0.40;99.90;;;;;;5095010;28;19912;-73
2022/03/01 06:13:50;;;;;;;;;;;-0.40;99.90;;;;;;5095138;28;19911;-72
2022/03/01 06:16:15;;;;;;;;;;;-0.40;99.90;;;;;;5095039;28;19911;-74
2022/03/01 06:18:41;;;;;;;;;;;-0.40;99.90;;;;;;5095647;28;19954;-74
2022/03/01 06:21:06;;;;;;;;;;;-0.40;99.90;;;;;;5113085;28;19919;-73
2022/03/01 06:23:32;;;;;;;;;;;-0.30;99.90;;;;;;5113561;28;20343;-74
2022/03/01 06:25:58;;;;;;;;;;;-0.30;99.90;;;;;;5113427;28;19920;-75
2022/03/01 06:28:24;;;;;;;;;;;-0.30;99.90;;;;;;5113573;28;19912;-74
2022/03/01 06:30:49;;;;;;;;;;;-0.20;99.90;;;;;;5112806;28;19955;-75
2022/03/01 06:33:18;;;;;;;;;;;-0.20;99.90;;;;;;5113040;28;19962;-75
2022/03/01 06:35:46;;;;;;;;;;;-0.70;99.90;;;;;;5094237;28;19989;-74
2022/03/01 06:38:12;;;;;;;;;;;-0.20;99.90;;;;;;5113038;28;20015;-74
2022/03/01 06:40:37;;;;;;;;;;;-0.20;99.90;;;;;;5112765;28;19959;-75
2022/03/01 06:43:03;;;;;;;;;;;-0.10;99.90;;;;;;5112955;28;20018;-74
2022/03/01 06:45:29;;;;;;;;;;;-0.10;99.90;;;;;;5094095;28;19958;-74
2022/03/01 06:47:55;;;;;;;;;;;-0.20;99.90;;;;;;5113215;28;20376;-74
2022/03/01 06:50:20;;;;;;;;;;;-0.20;99.90;;;;;;5112268;28;20347;-74
2022/03/01 06:52:46;;;;;;;;;;;-0.10;99.90;;;;;;5093950;28;20271;-74
2022/03/01 06:55:12;;;;;;;;;;;-0.10;99.90;;;;;;5111932;28;19998;-75
2022/03/01 06:57:40;;;;;;;;;;;-0.10;99.90;;;;;;5112597;28;19937;-73
2022/03/01 07:00:06;;;;;;;;;;;0.40;99.90;;;;;;5114752;27;20432;-73
2022/03/01 07:02:38;;;;;;;;;;;-0.10;99.90;;;;;;5112284;28;20391;-73
2022/03/01 07:05:04;;;;;;;;;;;0.00;99.90;;;;;;5111798;28;19916;-74
2022/03/01 07:07:29;;;;;;;;;;;-0.10;99.90;;;;;;5112283;28;20410;-73
2022/03/01 07:09:55;;;;;;;;;;;-0.10;99.90;;;;;;5112131;28;20281;-74
2022/03/01 07:12:21;;;;;;;;;;;0.00;99.90;;;;;;5094095;28;20073;-74
2022/03/01 07:14:46;;;;;;;;;;;-0.10;99.90;;;;;;5099430;27;19986;-74
2022/03/01 07:17:12;;;;;;;;;;;-0.10;99.90;;;;;;5114000;28;20370;-73
2022/03/01 07:19:37;;;;;;;;;;;0.00;99.90;;;;;;5132321;27;19908;-74
2022/03/01 07:22:03;;;;;;;;;;;0.00;99.90;;;;;;5148202;27;20014;-73
2022/03/01 07:24:29;;;;;;;;;;;0.00;99.90;;;;;;5128620;27;19960;-74
2022/03/01 07:26:54;;;;;;;;;;;0.00;99.90;;;;;;5111880;28;20335;-73
2022/03/01 07:29:20;;;;;;;;;;;0.00;99.90;;;;;;5111839;28;20367;-74
2022/03/01 07:31:45;;;;;;;;;;;0.00;99.90;;;;;;5112039;28;19914;-73
2022/03/01 07:34:11;;;;;;;;;;;0.00;99.90;;;;;;5111292;28;19955;-73
2022/03/01 07:36:36;;;;;;;;;;;0.00;99.90;;;;;;5111841;28;19908;-74
2022/03/01 07:39:03;;;;;;;;;;;0.00;99.90;;;;;;5112444;28;19923;-74
2022/03/01 07:41:28;;;;;;;;;;;0.00;99.90;;;;;;5111333;28;19920;-74
2022/03/01 07:43:54;;;;;;;;;;;0.00;99.90;;;;;;5112105;28;20018;-73
2022/03/01 07:46:19;;;;;;;;;;;0.00;99.90;;;;;;5093076;28;20011;-73
2022/03/01 07:48:45;;;;;;;;;;;0.00;99.90;;;;;;5093358;28;19916;-73
2022/03/01 07:51:10;;;;;;;;;;;0.20;99.90;;;;;;5111078;28;20386;-73
2022/03/01 07:53:36;;;;;;;;;;;0.10;99.90;;;;;;5111736;28;19967;-73
2022/03/01 07:56:02;;;;;;;;;;;0.10;99.90;;;;;;5092865;28;19976;-74
2022/03/01 07:58:28;;;;;;;;;;;0.70;99.90;;;;;;5093328;28;20443;-73
2022/03/01 08:00:53;;;;;;;;;;;0.10;99.90;;;;;;5092846;28;20049;-74
2022/03/01 08:03:19;;;;;;;;;;;0.10;99.90;;;;;;5111822;28;19920;-74
2022/03/01 08:05:45;;;;;;;;;;;0.10;99.90;;;;;;5111089;28;19916;-74
2022/03/01 08:08:11;;;;;;;;;;;0.10;99.90;;;;;;5111895;28;19919;-74
2022/03/01 08:10:37;;;;;;;;;;;0.20;99.90;;;;;;5094792;28;20601;-74
2022/03/01 08:13:02;;;;;;;;;;;0.20;99.90;;;;;;5097466;28;19916;-72
2022/03/01 08:15:28;;;;;;;;;;;0.20;99.90;;;;;;5115592;28;20373;-73
2022/03/01 08:17:55;;;;;;;;;;;0.20;99.90;;;;;;5116067;28;19916;-74
2022/03/01 08:20:21;;;;;;;;;;;0.20;99.90;;;;;;5115301;28;19908;-72
2022/03/01 08:22:46;;;;;;;;;;;0.30;99.90;;;;;;5096648;28;20024;-75
2022/03/01 08:25:13;;;;;;;;;;;0.20;99.90;;;;;;5105967;27;19918;-72
2022/03/01 08:27:38;;;;;;;;;;;0.30;99.90;;;;;;5117504;27;19923;-74
2022/03/01 08:30:04;;;;;;;;;;;0.30;99.90;;;;;;5127467;27;19907;-73
2022/03/01 08:32:30;;;;;;;;;;;0.40;99.90;;;;;;5096543;28;20422;-74
2022/03/01 08:34:56;;;;;;;;;;;0.50;99.90;;;;;;5103877;27;19911;-75
2022/03/01 08:37:21;;;;;;;;;;;0.40;99.90;;;;;;5117104;27;19927;-73
2022/03/01 08:39:47;;;;;;;;;;;0.40;99.90;;;;;;5116805;27;19908;-73
2022/03/01 08:42:13;;;;;;;;;;;0.50;99.90;;;;;;5151282;27;19920;-72
2022/03/01 08:44:38;;;;;;;;;;;0.40;99.90;;;;;;5149979;27;19907;-73
2022/03/01 08:47:04;;;;;;;;;;;0.50;99.90;;;;;;5135617;27;19981;-72
2022/03/01 08:49:29;;;;;;;;;;;0.50;99.90;;;;;;5135377;27;19960;-73
2022/03/01 08:51:55;;;;;;;;;;;0.50;99.90;;;;;;5135213;27;19926;-73
2022/03/01 08:54:21;;;;;;;;;;;0.70;99.90;;;;;;5133105;27;19942;-74
2022/03/01 08:56:46;;;;;;;;;;;0.60;99.90;;;;;;5114660;27;19951;-75
2022/03/01 08:59:12;;;;;;;;;;;0.70;99.90;;;;;;5097146;27;20038;-74
2022/03/01 09:01:38;;;;;;;;;;;0.70;99.90;;;;;;5151043;27;20331;-74
2022/03/01 09:04:03;;;;;;;;;;;0.60;99.90;;;;;;5151274;27;20014;-73
2022/03/01 09:06:29;;;;;;;;;;;0.60;99.90;;;;;;5096273;28;20003;-72
2022/03/01 09:08:54;;;;;;;;;;;0.70;99.90;;;;;;5096572;28;20343;-73
2022/03/01 09:11:20;;;;;;;;;;;0.70;99.90;;;;;;5114360;28;19919;-71
2022/03/01 09:13:45;;;;;;;;;;;0.80;99.90;;;;;;5096044;28;20267;-73
2022/03/01 09:16:11;;;;;;;;;;;0.70;99.90;;;;;;5113869;28;20006;-73
2022/03/01 09:18:37;;;;;;;;;;;0.80;99.90;;;;;;5114501;28;19912;-73
2022/03/01 09:21:03;;;;;;;;;;;1.10;99.90;;;;;;5113995;28;19916;-74
2022/03/01 09:23:29;;;;;;;;;;;0.80;99.90;;;;;;5113371;28;19920;-74
2022/03/01 09:25:54;;;;;;;;;;;0.80;99.90;;;;;;5113798;28;19911;-74
2022/03/01 09:28:20;;;;;;;;;;;0.80;99.90;;;;;;5095950;28;20359;-74
2022/03/01 09:30:45;;;;;;;;;;;0.80;99.90;;;;;;5095672;28;19915;-73
2022/03/01 09:33:12;;;;;;;;;;;0.80;99.90;;;;;;5114251;28;20366;-73
2022/03/01 09:35:37;;;;;;;;;;;0.90;99.90;;;;;;5114007;28;19939;-74
2022/03/01 09:38:03;;;;;;;;;;;0.80;99.90;;;;;;5113696;28;20004;-74
2022/03/01 09:40:29;;;;;;;;;;;0.80;99.90;;;;;;5095392;28;19916;-72
2022/03/01 09:42:54;;;;;;;;;;;0.90;99.90;;;;;;5113892;28;20016;-73
2022/03/01 09:45:20;;;;;;;;;;;0.90;99.90;;;;;;5095289;28;19916;-73
2022/03/01 09:47:46;;;;;;;;;;;0.90;99.90;;;;;;5113835;28;20340;-74
2022/03/01 09:50:12;;;;;;;;;;;0.90;99.90;;;;;;5113324;28;19915;-74
2022/03/01 09:52:38;;;;;;;;;;;1.00;99.90;;;;;;5113591;28;19920;-74
2022/03/01 09:55:05;;;;;;;;;;;1.00;99.90;;;;;;5095030;28;19923;-74
2022/03/01 09:57:30;;;;;;;;;;;1.00;99.90;;;;;;5113679;28;20018;-74
2022/03/01 09:59:56;;;;;;;;;;;1.10;99.90;;;;;;5098728;28;20370;-74
2022/03/01 10:02:31;;;;;;;;;;;1.00;99.90;;;;;;5113170;28;19924;-73
2022/03/01 10:05:01;;;;;;;;;;;1.10;99.90;;;;;;5113069;28;20272;-74
2022/03/01 10:07:28;;;;;;;;;;;1.10;99.90;;;;;;5094851;28;19916;-73
2022/03/01 10:09:56;;;;;;;;;;;1.10;99.90;;;;;;5113104;28;20271;-72
2022/03/01 10:12:26;;;;;;;;;;;1.10;99.90;;;;;;5113206;28;19964;-73
2022/03/01 10:15:03;;;;;;;;;;;1.10;99.90;;;;;;5119667;27;19912;-74
2022/03/01 10:17:36;;;;;;;;;;;1.20;99.90;;;;;;5133940;27;19919;-74
2022/03/01 10:20:06;;;;;;;;;;;1.10;99.90;;;;;;5115056;27;19913;-74
2022/03/01 10:22:32;;;;;;;;;;;1.20;99.90;;;;;;5133428;27;19934;-74
2022/03/01 10:25:05;;;;;;;;;;;1.20;99.90;;;;;;5114654;27;20006;-73
2022/03/01 10:27:30;;;;;;;;;;;1.20;99.90;;;;;;5133402;27;20018;-71
2022/03/01 10:29:56;;;;;;;;;;;1.20;99.90;;;;;;5125931;27;19943;-74
2022/03/01 10:32:21;;;;;;;;;;;1.20;99.90;;;;;;5094325;28;19927;-73
2022/03/01 10:34:57;;;;;;;;;;;1.20;99.90;;;;;;5111425;28;20423;-73
2022/03/01 10:37:24;;;;;;;;;;;1.20;99.90;;;;;;5094531;28;19920;-74
2022/03/01 10:39:49;;;;;;;;;;;1.20;99.90;;;;;;5094167;28;19907;-74
2022/03/01 10:42:16;;;;;;;;;;;1.20;99.90;;;;;;5112668;28;20025;-74
2022/03/01 10:44:41;;;;;;;;;;;1.20;99.90;;;;;;5112462;28;20118;-72
2022/03/01 10:47:17;;;;;;;;;;;1.30;99.90;;;;;;5094288;28;19976;-74
2022/03/01 10:49:43;;;;;;;;;;;1.30;99.90;;;;;;5112458;28;19935;-73
2022/03/01 10:52:10;;;;;;;;;;;1.20;99.90;;;;;;5112515;28;20355;-74
2022/03/01 10:54:40;;;;;;;;;;;1.20;99.90;;;;;;5093880;28;19941;-76
2022/03/01 10:57:06;;;;;;;;;;;1.30;99.90;;;;;;5094172;28;20263;-73
2022/03/01 10:59:32;;;;;;;;;;;1.30;99.90;;;;;;5115648;27;20202;-74
2022/03/01 11:01:58;;;;;;;;;;;1.30;99.90;;;;;;5112109;28;20427;-72
2022/03/01 11:04:25;;;;;;;;;;;1.40;99.90;;;;;;5114300;27;20002;-72
2022/03/01 11:06:52;;;;;;;;;;;1.40;99.90;;;;;;5114426;27;19911;-73
2022/03/01 11:09:18;;;;;;;;;;;1.40;99.90;;;;;;5132713;27;19908;-74
2022/03/01 11:11:45;;;;;;;;;;;1.50;99.90;;;;;;5132837;27;19927;-72
2022/03/01 11:14:11;;;;;;;;;;;1.50;99.90;;;;;;5131504;27;19960;-73
2022/03/01 11:16:37;;;;;;;;;;;1.50;99.90;;;;;;5111825;28;20359;-73
2022/03/01 11:19:38;;;;;;;;;;;1.50;99.90;;;;;;5112323;28;19920;-74
2022/03/01 11:22:05;;;;;;;;;;;1.40;99.90;;;;;;5009016;28;20475;-73
2022/03/01 11:24:31;;;;;;;;;;;1.40;99.90;;;;;;5076311;27;19947;-74
2022/03/01 11:27:06;;;;;;;;;;;1.40;99.90;;;;;;5132380;27;19907;-73
2022/03/01 11:29:36;;;;;;;;;;;1.40;99.90;;;;;;5147709;27;19911;-73
2022/03/01 11:32:07;;;;;;;;;;;1.40;99.90;;;;;;5132543;27;19911;-74
2022/03/01 11:34:32;;;;;;;;;;;1.50;99.90;;;;;;5132191;27;19915;-74
2022/03/01 11:36:58;;;;;;;;;;;1.50;99.90;;;;;;5132285;27;20319;-74
2022/03/01 11:39:34;;;;;;;;;;;1.60;99.90;;;;;;5129486;27;20323;-74
2022/03/01 11:42:03;;;;;;;;;;;1.60;99.90;;;;;;5111867;28;20220;-75
2022/03/01 11:44:32;;;;;;;;;;;1.60;99.90;;;;;;5092667;28;20268;-73
2022/03/01 11:46:58;;;;;;;;;;;1.70;99.90;;;;;;5093190;28;19915;-73
2022/03/01 11:49:25;;;;;;;;;;;1.60;99.90;;;;;;5113627;28;19907;-73
2022/03/01 11:51:54;;;;;;;;;;;1.60;99.90;;;;;;5131903;27;20395;-74
2022/03/01 11:54:21;;;;;;;;;;;1.50;99.90;;;;;;5130139;27;19931;-74
2022/03/01 11:56:47;;;;;;;;;;;1.50;99.90;;;;;;5093396;28;20063;-73
2022/03/01 11:59:13;;;;;;;;;;;1.60;99.90;;;;;;5096678;28;19919;-75
2022/03/01 12:01:39;;;;;;;;;;;1.60;99.90;;;;;;5111422;28;20359;-73
2022/03/01 12:04:06;;;;;;;;;;;1.50;99.90;;;;;;5093144;28;19911;-72
2022/03/01 12:06:33;;;;;;;;;;;1.40;99.90;;;;;;5111177;28;20411;-73
2022/03/01 12:09:00;;;;;;;;;;;1.40;99.90;;;;;;5093036;28;19958;-75
2022/03/01 12:11:33;;;;;;;;;;;1.50;99.90;;;;;;5092808;28;19912;-72
2022/03/01 12:14:04;;;;;;;;;;;1.40;99.90;;;;;;5092843;28;19912;-73
2022/03/01 12:16:30;;;;;;;;;;;1.50;99.90;;;;;;5092493;28;19965;-73
2022/03/01 12:19:06;;;;;;;;;;;1.50;99.90;;;;;;5111465;28;20000;-74
2022/03/01 12:21:32;;;;;;;;;;;1.50;99.90;;;;;;5092950;28;20294;-74
2022/03/01 12:23:58;;;;;;;;;;;1.50;99.90;;;;;;5111591;28;19916;-73
2022/03/01 12:26:25;;;;;;;;;;;1.60;99.90;;;;;;5092543;28;19957;-74
2022/03/01 12:28:51;;;;;;;;;;;1.50;99.90;;;;;;5111569;28;19923;-73
2022/03/01 12:31:23;;;;;;;;;;;1.40;99.90;;;;;;5111159;28;19911;-72
2022/03/01 12:34:04;;;;;;;;;;;1.50;99.90;;;;;;5111549;28;19916;-74
2022/03/01 12:36:31;;;;;;;;;;;1.50;99.90;;;;;;5131039;28;19911;-74
2022/03/01 12:38:59;;;;;;;;;;;1.50;99.90;;;;;;5131496;28;19911;-74
2022/03/01 12:41:25;;;;;;;;;;;1.60;99.90;;;;;;5112899;28;19911;-74
2022/03/01 12:43:52;;;;;;;;;;;1.60;99.90;;;;;;5131904;28;19986;-74
2022/03/01 12:46:18;;;;;;;;;;;1.60;99.90;;;;;;5131938;27;20366;-73
2022/03/01 12:48:43;;;;;;;;;;;1.60;99.90;;;;;;5113285;28;19974;-71
2022/03/01 12:51:09;;;;;;;;;;;1.50;99.90;;;;;;5130700;28;20014;-73
2022/03/01 12:53:34;;;;;;;;;;;1.50;99.90;;;;;;5131644;28;19969;-74
2022/03/01 12:56:00;;;;;;;;;;;1.50;99.90;;;;;;5130804;27;20027;-75
2022/03/01 12:58:29;;;;;;;;;;;1.60;99.90;;;;;;5115578;27;19938;-74
2022/03/01 13:01:05;;;;;;;;;;;1.60;99.90;;;;;;5101041;28;19947;-74
2022/03/01 13:03:31;;;;;;;;;;;1.60;99.90;;;;;;5095996;28;19952;-74
2022/03/01 13:06:07;;;;;;;;;;;1.60;99.90;;;;;;5114318;28;20003;-73
2022/03/01 13:08:34;;;;;;;;;;;1.50;99.90;;;;;;5114532;28;19972;-74
2022/03/01 13:10:59;;;;;;;;;;;1.60;99.90;;;;;;5114212;28;20343;-74
2022/03/01 13:13:25;;;;;;;;;;;1.70;99.90;;;;;;5114836;28;19916;-75
2022/03/01 13:15:51;;;;;;;;;;;1.60;99.90;;;;;;5096124;28;19911;-73
2022/03/01 13:18:24;;;;;;;;;;;1.50;99.90;;;;;;5096357;28;20002;-73
2022/03/01 13:20:50;;;;;;;;;;;1.50;99.90;;;;;;5095991;28;19908;-73
2022/03/01 13:23:19;;;;;;;;;;;1.40;99.90;;;;;;5114539;28;19927;-72
2022/03/01 13:25:45;;;;;;;;;;;2.80;99.90;;;;;;5113969;28;19954;-73
2022/03/01 13:28:11;;;;;;;;;;;1.40;99.90;;;;;;5114428;28;19916;-74
2022/03/01 13:30:37;;;;;;;;;;;1.50;99.90;;;;;;5095341;28;19914;-75
2022/03/01 13:33:02;;;;;;;;;;;1.30;99.90;;;;;;5114242;28;20023;-73
2022/03/01 13:35:29;;;;;;;;;;;1.50;99.90;;;;;;5114041;28;20352;-72
2022/03/01 13:37:59;;;;;;;;;;;1.50;99.90;;;;;;5113734;28;20286;-73
2022/03/01 13:40:26;;;;;;;;;;;1.50;99.90;;;;;;5105950;27;19999;-74
2022/03/01 13:42:51;;;;;;;;;;;1.50;99.90;;;;;;5134377;27;20374;-73
2022/03/01 13:45:17;;;;;;;;;;;1.50;99.90;;;;;;5134040;27;19907;-73
2022/03/01 13:47:44;;;;;;;;;;;1.50;99.90;;;;;;5134384;27;20331;-74
2022/03/01 13:50:11;;;;;;;;;;;1.50;99.90;;;;;;5124972;27;19950;-72
2022/03/01 13:52:37;;;;;;;;;;;1.50;99.90;;;;;;5113449;28;20366;-73
2022/03/01 13:55:03;;;;;;;;;;;1.50;99.90;;;;;;5113397;28;19922;-73
2022/03/01 13:57:32;;;;;;;;;;;1.50;99.90;;;;;;5113473;28;19915;-74
2022/03/01 14:00:09;;;;;;;;;;;1.50;99.90;;;;;;5116943;27;19995;-74
2022/03/01 14:02:35;;;;;;;;;;;1.50;99.90;;;;;;5112785;28;20334;-74
2022/03/01 14:05:03;;;;;;;;;;;1.50;99.90;;;;;;5094820;28;19908;-73
2022/03/01 14:07:28;;;;;;;;;;;1.50;99.90;;;;;;5094927;28;20302;-73
2022/03/01 14:09:54;;;;;;;;;;;1.60;99.90;;;;;;5094567;28;19912;-76
2022/03/01 14:12:34;;;;;;;;;;;1.60;99.90;;;;;;5094707;28;20264;-73
2022/03/01 14:14:59;;;;;;;;;;;1.50;99.90;;;;;;5095145;28;19915;-74
2022/03/01 14:17:25;;;;;;;;;;;1.50;99.90;;;;;;5094826;28;19912;-73
2022/03/01 14:19:52;;;;;;;;;;;1.50;99.90;;;;;;5113281;28;20329;-74
2022/03/01 14:22:17;;;;;;;;;;;1.50;99.90;;;;;;5113102;28;20381;-74